sensor_id;sensor_type;location;lat;lon;timestamp;P1;durP1;ratioP1;P2;durP2;ratioP2
18001;SDS011;9126;48.160;17.130;2022-10-13T00:00:04;41.07;;;31.70;;
18001;SDS011;9126;48.160;17.130;2022-10-13T00:02:32;37.43;;;30.33;;
18001;SDS011;9126;48.160;17.130;2022-10-13T00:05:00;40.00;;;32.10;;
18001;SDS011;9126;48.160;17.130;2022-10-13T00:07:30;41.87;;;35.03;;
18001;SDS011;9126;48.160;17.130;2022-10-13T00:09:59;41.23;;;34.73;;
18001;SDS011;9126;48.160;17.130;2022-10-13T00:12:31;44.10;;;32.60;;
18001;SDS011;9126;48.160;17.130;2022-10-13T00:15:05;43.33;;;32.50;;
18001;SDS011;9126;48.160;17.130;2022-10-13T00:17:35;41.77;;;36.10;;
18001;SDS011;9126;48.160;17.130;2022-10-13T00:20:03;40.40;;;32.40;;
18001;SDS011;9126;48.160;17.130;2022-10-13T00:22:31;42.33;;;34.97;;
18001;SDS011;9126;48.160;17.130;2022-10-13T00:24:58;38.90;;;31.40;;
18001;SDS011;9126;48.160;17.130;2022-10-13T00:27:28;38.13;;;34.33;;
18001;SDS011;9126;48.160;17.130;2022-10-13T00:29:58;38.17;;;31.50;;
18001;SDS011;9126;48.160;17.130;2022-10-13T00:32:26;39.77;;;35.57;;
18001;SDS011;9126;48.160;17.130;2022-10-13T00:34:53;41.30;;;32.17;;
18001;SDS011;9126;48.160;17.130;2022-10-13T00:37:21;41.47;;;31.47;;
18001;SDS011;9126;48.160;17.130;2022-10-13T00:39:49;44.70;;;35.53;;
18001;SDS011;9126;48.160;17.130;2022-10-13T00:42:18;44.33;;;31.17;;
18001;SDS011;9126;48.160;17.130;2022-10-13T00:45:01;42.73;;;31.13;;
18001;SDS011;9126;48.160;17.130;2022-10-13T00:47:32;42.13;;;34.17;;
18001;SDS011;9126;48.160;17.130;2022-10-13T00:50:05;41.40;;;28.93;;
18001;SDS011;9126;48.160;17.130;2022-10-13T00:52:36;38.13;;;34.07;;
18001;SDS011;9126;48.160;17.130;2022-10-13T00:55:13;39.87;;;29.60;;
18001;SDS011;9126;48.160;17.130;2022-10-13T00:57:43;36.57;;;32.60;;
18001;SDS011;9126;48.160;17.130;2022-10-13T01:00:20;37.17;;;27.43;;
18001;SDS011;9126;48.160;17.130;2022-10-13T01:02:50;33.63;;;30.23;;
18001;SDS011;9126;48.160;17.130;2022-10-13T01:05:19;38.83;;;30.47;;
18001;SDS011;9126;48.160;17.130;2022-10-13T01:07:47;35.50;;;31.67;;
18001;SDS011;9126;48.160;17.130;2022-10-13T01:10:15;39.10;;;30.23;;
18001;SDS011;9126;48.160;17.130;2022-10-13T01:12:51;39.77;;;35.20;;
18001;SDS011;9126;48.160;17.130;2022-10-13T01:15:29;38.70;;;34.30;;
18001;SDS011;9126;48.160;17.130;2022-10-13T01:18:04;46.40;;;39.03;;
18001;SDS011;9126;48.160;17.130;2022-10-13T01:26:50;50.73;;;45.23;;
18001;SDS011;9126;48.160;17.130;2022-10-13T01:29:45;48.73;;;43.53;;
18001;SDS011;9126;48.160;17.130;2022-10-13T01:32:38;48.97;;;43.87;;
18001;SDS011;9126;48.160;17.130;2022-10-13T01:35:21;49.53;;;42.07;;
18001;SDS011;9126;48.160;17.130;2022-10-13T01:37:54;44.77;;;39.97;;
18001;SDS011;9126;48.160;17.130;2022-10-13T01:40:29;44.57;;;39.93;;
18001;SDS011;9126;48.160;17.130;2022-10-13T01:43:04;44.80;;;38.97;;
18001;SDS011;9126;48.160;17.130;2022-10-13T01:45:37;42.60;;;37.40;;
18001;SDS011;9126;48.160;17.130;2022-10-13T01:48:11;38.80;;;34.87;;
18001;SDS011;9126;48.160;17.130;2022-10-13T01:50:40;36.57;;;32.57;;
18001;SDS011;9126;48.160;17.130;2022-10-13T01:53:07;34.10;;;30.37;;
18001;SDS011;9126;48.160;17.130;2022-10-13T01:55:47;30.90;;;27.73;;
18001;SDS011;9126;48.160;17.130;2022-10-13T01:58:15;33.37;;;27.67;;
18001;SDS011;9126;48.160;17.130;2022-10-13T02:00:46;28.10;;;25.20;;
18001;SDS011;9126;48.160;17.130;2022-10-13T02:03:22;28.83;;;25.70;;
18001;SDS011;9126;48.160;17.130;2022-10-13T02:06:00;28.67;;;24.60;;
18001;SDS011;9126;48.160;17.130;2022-10-13T02:08:36;26.63;;;24.07;;
18001;SDS011;9126;48.160;17.130;2022-10-13T02:11:08;27.30;;;23.17;;
18001;SDS011;9126;48.160;17.130;2022-10-13T02:13:39;29.77;;;23.07;;
18001;SDS011;9126;48.160;17.130;2022-10-13T02:16:15;33.77;;;23.37;;
18001;SDS011;9126;48.160;17.130;2022-10-13T02:18:44;28.17;;;24.30;;
18001;SDS011;9126;48.160;17.130;2022-10-13T02:21:14;25.63;;;23.13;;
18001;SDS011;9126;48.160;17.130;2022-10-13T02:23:44;25.47;;;22.90;;
18001;SDS011;9126;48.160;17.130;2022-10-13T02:26:12;26.70;;;23.80;;
18001;SDS011;9126;48.160;17.130;2022-10-13T02:28:40;26.30;;;23.53;;
18001;SDS011;9126;48.160;17.130;2022-10-13T02:31:07;32.70;;;29.27;;
18001;SDS011;9126;48.160;17.130;2022-10-13T02:33:36;35.90;;;28.83;;
18001;SDS011;9126;48.160;17.130;2022-10-13T02:36:03;36.83;;;32.03;;
18001;SDS011;9126;48.160;17.130;2022-10-13T02:38:30;43.83;;;37.77;;
18001;SDS011;9126;48.160;17.130;2022-10-13T02:40:57;42.93;;;38.20;;
18001;SDS011;9126;48.160;17.130;2022-10-13T02:43:25;38.73;;;34.53;;
18001;SDS011;9126;48.160;17.130;2022-10-13T02:45:52;41.93;;;36.93;;
18001;SDS011;9126;48.160;17.130;2022-10-13T02:48:19;42.23;;;36.70;;
18001;SDS011;9126;48.160;17.130;2022-10-13T02:50:48;48.30;;;37.87;;
18001;SDS011;9126;48.160;17.130;2022-10-13T02:53:15;44.57;;;38.00;;
18001;SDS011;9126;48.160;17.130;2022-10-13T02:55:42;43.20;;;38.60;;
18001;SDS011;9126;48.160;17.130;2022-10-13T02:58:09;39.87;;;35.67;;
18001;SDS011;9126;48.160;17.130;2022-10-13T03:00:36;39.87;;;35.77;;
18001;SDS011;9126;48.160;17.130;2022-10-13T03:03:03;39.50;;;35.23;;
18001;SDS011;9126;48.160;17.130;2022-10-13T03:05:31;38.90;;;34.07;;
18001;SDS011;9126;48.160;17.130;2022-10-13T03:07:59;36.67;;;32.40;;
18001;SDS011;9126;48.160;17.130;2022-10-13T03:10:26;36.67;;;32.83;;
18001;SDS011;9126;48.160;17.130;2022-10-13T03:12:54;35.87;;;32.03;;
18001;SDS011;9126;48.160;17.130;2022-10-13T03:15:21;34.90;;;31.17;;
18001;SDS011;9126;48.160;17.130;2022-10-13T03:17:49;31.10;;;28.00;;
18001;SDS011;9126;48.160;17.130;2022-10-13T03:20:16;33.20;;;27.90;;
18001;SDS011;9126;48.160;17.130;2022-10-13T03:22:43;30.03;;;26.77;;
18001;SDS011;9126;48.160;17.130;2022-10-13T03:25:12;31.03;;;25.90;;
18001;SDS011;9126;48.160;17.130;2022-10-13T03:27:39;27.17;;;24.40;;
18001;SDS011;9126;48.160;17.130;2022-10-13T03:30:06;29.73;;;24.50;;
18001;SDS011;9126;48.160;17.130;2022-10-13T03:32:34;27.43;;;23.77;;
18001;SDS011;9126;48.160;17.130;2022-10-13T03:35:03;27.00;;;23.90;;
18001;SDS011;9126;48.160;17.130;2022-10-13T03:37:31;26.63;;;23.70;;
18001;SDS011;9126;48.160;17.130;2022-10-13T03:39:58;26.67;;;23.87;;
18001;SDS011;9126;48.160;17.130;2022-10-13T03:42:27;24.47;;;21.87;;
18001;SDS011;9126;48.160;17.130;2022-10-13T03:44:54;25.57;;;22.80;;
18001;SDS011;9126;48.160;17.130;2022-10-13T03:47:21;26.27;;;23.57;;
18001;SDS011;9126;48.160;17.130;2022-10-13T03:49:48;25.80;;;23.23;;
18001;SDS011;9126;48.160;17.130;2022-10-13T03:52:18;27.93;;;24.03;;
18001;SDS011;9126;48.160;17.130;2022-10-13T03:54:46;26.60;;;23.03;;
18001;SDS011;9126;48.160;17.130;2022-10-13T03:57:14;26.43;;;22.63;;
18001;SDS011;9126;48.160;17.130;2022-10-13T03:59:42;26.13;;;22.97;;
18001;SDS011;9126;48.160;17.130;2022-10-13T04:02:10;28.43;;;24.00;;
18001;SDS011;9126;48.160;17.130;2022-10-13T04:04:37;28.97;;;25.67;;
18001;SDS011;9126;48.160;17.130;2022-10-13T04:07:05;35.70;;;27.77;;
18001;SDS011;9126;48.160;17.130;2022-10-13T04:09:33;33.03;;;28.93;;
18001;SDS011;9126;48.160;17.130;2022-10-13T04:12:00;36.73;;;31.73;;
18001;SDS011;9126;48.160;17.130;2022-10-13T04:14:27;33.97;;;30.13;;
18001;SDS011;9126;48.160;17.130;2022-10-13T04:16:55;33.80;;;30.30;;
18001;SDS011;9126;48.160;17.130;2022-10-13T04:19:22;32.63;;;28.40;;
18001;SDS011;9126;48.160;17.130;2022-10-13T04:21:50;36.47;;;32.50;;
18001;SDS011;9126;48.160;17.130;2022-10-13T04:24:17;37.70;;;32.10;;
18001;SDS011;9126;48.160;17.130;2022-10-13T04:26:44;35.87;;;31.77;;
18001;SDS011;9126;48.160;17.130;2022-10-13T04:29:12;37.43;;;32.93;;
18001;SDS011;9126;48.160;17.130;2022-10-13T04:31:39;37.23;;;30.87;;
18001;SDS011;9126;48.160;17.130;2022-10-13T04:34:10;38.03;;;32.10;;
18001;SDS011;9126;48.160;17.130;2022-10-13T04:36:41;35.73;;;30.70;;
18001;SDS011;9126;48.160;17.130;2022-10-13T04:39:10;34.67;;;31.10;;
18001;SDS011;9126;48.160;17.130;2022-10-13T04:41:40;43.10;;;31.33;;
18001;SDS011;9126;48.160;17.130;2022-10-13T04:44:08;32.70;;;28.37;;
18001;SDS011;9126;48.160;17.130;2022-10-13T04:46:36;29.80;;;26.70;;
18001;SDS011;9126;48.160;17.130;2022-10-13T04:49:03;29.83;;;26.77;;
18001;SDS011;9126;48.160;17.130;2022-10-13T04:51:31;34.90;;;26.80;;
18001;SDS011;9126;48.160;17.130;2022-10-13T04:53:59;32.87;;;26.83;;
18001;SDS011;9126;48.160;17.130;2022-10-13T04:56:27;30.00;;;26.33;;
18001;SDS011;9126;48.160;17.130;2022-10-13T04:58:54;30.17;;;26.33;;
18001;SDS011;9126;48.160;17.130;2022-10-13T05:01:22;31.53;;;27.97;;
18001;SDS011;9126;48.160;17.130;2022-10-13T05:03:50;34.40;;;27.87;;
18001;SDS011;9126;48.160;17.130;2022-10-13T05:06:20;30.30;;;25.53;;
18001;SDS011;9126;48.160;17.130;2022-10-13T05:08:52;29.90;;;26.73;;
18001;SDS011;9126;48.160;17.130;2022-10-13T05:11:21;34.97;;;26.93;;
18001;SDS011;9126;48.160;17.130;2022-10-13T05:13:50;35.67;;;27.50;;
18001;SDS011;9126;48.160;17.130;2022-10-13T05:16:26;29.87;;;26.50;;
18001;SDS011;9126;48.160;17.130;2022-10-13T05:18:56;33.77;;;28.03;;
18001;SDS011;9126;48.160;17.130;2022-10-13T05:21:26;33.97;;;27.13;;
18001;SDS011;9126;48.160;17.130;2022-10-13T05:23:57;27.33;;;24.60;;
18001;SDS011;9126;48.160;17.130;2022-10-13T05:26:27;27.33;;;24.03;;
18001;SDS011;9126;48.160;17.130;2022-10-13T05:28:56;32.63;;;25.50;;
18001;SDS011;9126;48.160;17.130;2022-10-13T05:31:25;28.27;;;24.97;;
18001;SDS011;9126;48.160;17.130;2022-10-13T05:33:53;30.33;;;27.23;;
18001;SDS011;9126;48.160;17.130;2022-10-13T05:36:21;33.90;;;28.17;;
18001;SDS011;9126;48.160;17.130;2022-10-13T05:38:49;30.93;;;25.80;;
18001;SDS011;9126;48.160;17.130;2022-10-13T05:41:19;35.50;;;27.87;;
18001;SDS011;9126;48.160;17.130;2022-10-13T05:43:48;37.20;;;27.80;;
18001;SDS011;9126;48.160;17.130;2022-10-13T05:46:20;36.20;;;27.73;;
18001;SDS011;9126;48.160;17.130;2022-10-13T05:48:48;31.53;;;27.63;;
18001;SDS011;9126;48.160;17.130;2022-10-13T05:51:19;33.00;;;27.93;;
18001;SDS011;9126;48.160;17.130;2022-10-13T05:53:57;34.43;;;26.53;;
18001;SDS011;9126;48.160;17.130;2022-10-13T05:56:32;32.37;;;26.10;;
18001;SDS011;9126;48.160;17.130;2022-10-13T05:59:05;38.00;;;28.00;;
18001;SDS011;9126;48.160;17.130;2022-10-13T06:01:38;34.87;;;27.03;;
18001;SDS011;9126;48.160;17.130;2022-10-13T06:04:13;30.80;;;27.50;;
18001;SDS011;9126;48.160;17.130;2022-10-13T06:06:44;33.47;;;27.20;;
18001;SDS011;9126;48.160;17.130;2022-10-13T06:09:13;37.30;;;27.60;;
18001;SDS011;9126;48.160;17.130;2022-10-13T06:11:41;35.13;;;26.53;;
18001;SDS011;9126;48.160;17.130;2022-10-13T06:14:08;32.30;;;26.73;;
18001;SDS011;9126;48.160;17.130;2022-10-13T06:16:37;28.83;;;25.57;;
18001;SDS011;9126;48.160;17.130;2022-10-13T06:19:05;32.87;;;27.10;;
18001;SDS011;9126;48.160;17.130;2022-10-13T06:21:33;29.97;;;25.90;;
18001;SDS011;9126;48.160;17.130;2022-10-13T06:24:00;36.37;;;27.00;;
18001;SDS011;9126;48.160;17.130;2022-10-13T06:26:27;31.47;;;27.30;;
18001;SDS011;9126;48.160;17.130;2022-10-13T06:28:55;28.13;;;25.13;;
18001;SDS011;9126;48.160;17.130;2022-10-13T06:31:22;27.47;;;24.47;;
18001;SDS011;9126;48.160;17.130;2022-10-13T06:33:49;34.03;;;27.00;;
18001;SDS011;9126;48.160;17.130;2022-10-13T06:36:16;30.40;;;24.83;;
18001;SDS011;9126;48.160;17.130;2022-10-13T06:38:44;31.17;;;25.20;;
18001;SDS011;9126;48.160;17.130;2022-10-13T06:41:13;31.47;;;22.33;;
18001;SDS011;9126;48.160;17.130;2022-10-13T06:43:41;29.97;;;25.23;;
18001;SDS011;9126;48.160;17.130;2022-10-13T06:46:13;29.93;;;25.87;;
18001;SDS011;9126;48.160;17.130;2022-10-13T06:48:51;35.17;;;24.33;;
18001;SDS011;9126;48.160;17.130;2022-10-13T06:51:19;32.17;;;27.37;;
18001;SDS011;9126;48.160;17.130;2022-10-13T06:53:47;36.63;;;24.50;;
18001;SDS011;9126;48.160;17.130;2022-10-13T06:56:14;29.17;;;25.83;;
18001;SDS011;9126;48.160;17.130;2022-10-13T06:58:42;32.03;;;26.87;;
18001;SDS011;9126;48.160;17.130;2022-10-13T07:01:11;31.43;;;26.07;;
18001;SDS011;9126;48.160;17.130;2022-10-13T07:03:40;32.67;;;22.87;;
18001;SDS011;9126;48.160;17.130;2022-10-13T07:06:07;29.17;;;26.10;;
18001;SDS011;9126;48.160;17.130;2022-10-13T07:08:36;29.40;;;23.53;;
18001;SDS011;9126;48.160;17.130;2022-10-13T07:11:06;28.83;;;25.67;;
18001;SDS011;9126;48.160;17.130;2022-10-13T07:13:36;31.40;;;23.10;;
18001;SDS011;9126;48.160;17.130;2022-10-13T07:16:04;46.90;;;24.63;;
18001;SDS011;9126;48.160;17.130;2022-10-13T07:18:36;26.83;;;22.90;;
18001;SDS011;9126;48.160;17.130;2022-10-13T07:21:03;33.03;;;22.63;;
18001;SDS011;9126;48.160;17.130;2022-10-13T07:23:34;30.70;;;22.43;;
18001;SDS011;9126;48.160;17.130;2022-10-13T07:26:05;31.10;;;25.03;;
18001;SDS011;9126;48.160;17.130;2022-10-13T07:28:35;29.57;;;25.17;;
18001;SDS011;9126;48.160;17.130;2022-10-13T07:31:06;33.37;;;24.77;;
18001;SDS011;9126;48.160;17.130;2022-10-13T07:33:40;29.70;;;23.17;;
18001;SDS011;9126;48.160;17.130;2022-10-13T07:36:10;31.27;;;24.27;;
18001;SDS011;9126;48.160;17.130;2022-10-13T07:38:59;41.70;;;27.10;;
18001;SDS011;9126;48.160;17.130;2022-10-13T07:41:27;33.57;;;23.40;;
18001;SDS011;9126;48.160;17.130;2022-10-13T07:43:56;29.50;;;23.60;;
18001;SDS011;9126;48.160;17.130;2022-10-13T07:46:24;31.87;;;23.03;;
18001;SDS011;9126;48.160;17.130;2022-10-13T07:48:56;27.37;;;23.90;;
18001;SDS011;9126;48.160;17.130;2022-10-13T07:51:23;26.58;;;21.67;;
18001;SDS011;9126;48.160;17.130;2022-10-13T07:53:50;27.17;;;22.37;;
18001;SDS011;9126;48.160;17.130;2022-10-13T07:56:18;28.17;;;20.90;;
18001;SDS011;9126;48.160;17.130;2022-10-13T07:58:48;29.60;;;21.55;;
18001;SDS011;9126;48.160;17.130;2022-10-13T08:01:15;31.75;;;20.88;;
18001;SDS011;9126;48.160;17.130;2022-10-13T08:03:43;24.73;;;21.00;;
18001;SDS011;9126;48.160;17.130;2022-10-13T08:06:16;31.38;;;21.52;;
18001;SDS011;9126;48.160;17.130;2022-10-13T08:08:44;32.50;;;22.27;;
18001;SDS011;9126;48.160;17.130;2022-10-13T08:11:13;35.97;;;22.27;;
18001;SDS011;9126;48.160;17.130;2022-10-13T08:13:47;26.57;;;20.87;;
18001;SDS011;9126;48.160;17.130;2022-10-13T08:16:17;28.17;;;19.33;;
18001;SDS011;9126;48.160;17.130;2022-10-13T08:18:45;25.77;;;19.83;;
18001;SDS011;9126;48.160;17.130;2022-10-13T08:21:22;25.10;;;19.67;;
18001;SDS011;9126;48.160;17.130;2022-10-13T08:23:49;29.50;;;19.30;;
18001;SDS011;9126;48.160;17.130;2022-10-13T08:26:17;25.35;;;21.10;;
18001;SDS011;9126;48.160;17.130;2022-10-13T08:28:46;28.55;;;20.90;;
18001;SDS011;9126;48.160;17.130;2022-10-13T08:31:14;26.50;;;20.02;;
18001;SDS011;9126;48.160;17.130;2022-10-13T08:33:43;25.27;;;20.27;;
18001;SDS011;9126;48.160;17.130;2022-10-13T08:36:12;22.02;;;19.45;;
18001;SDS011;9126;48.160;17.130;2022-10-13T08:38:47;29.55;;;19.77;;
18001;SDS011;9126;48.160;17.130;2022-10-13T08:41:15;30.35;;;19.35;;
18001;SDS011;9126;48.160;17.130;2022-10-13T08:43:47;24.63;;;19.23;;
18001;SDS011;9126;48.160;17.130;2022-10-13T08:46:18;29.13;;;20.10;;
18001;SDS011;9126;48.160;17.130;2022-10-13T08:48:50;33.45;;;20.10;;
18001;SDS011;9126;48.160;17.130;2022-10-13T08:51:20;33.10;;;20.55;;
18001;SDS011;9126;48.160;17.130;2022-10-13T08:53:50;29.27;;;20.13;;
18001;SDS011;9126;48.160;17.130;2022-10-13T08:56:18;28.67;;;19.98;;
18001;SDS011;9126;48.160;17.130;2022-10-13T08:58:54;25.33;;;18.92;;
18001;SDS011;9126;48.160;17.130;2022-10-13T09:01:23;25.38;;;18.95;;
18001;SDS011;9126;48.160;17.130;2022-10-13T09:03:54;25.35;;;18.63;;
18001;SDS011;9126;48.160;17.130;2022-10-13T09:06:26;28.58;;;18.98;;
18001;SDS011;9126;48.160;17.130;2022-10-13T09:08:59;33.50;;;19.92;;
18001;SDS011;9126;48.160;17.130;2022-10-13T09:11:31;25.48;;;20.98;;
18001;SDS011;9126;48.160;17.130;2022-10-13T09:14:01;28.02;;;20.88;;
18001;SDS011;9126;48.160;17.130;2022-10-13T09:16:33;28.65;;;20.67;;
18001;SDS011;9126;48.160;17.130;2022-10-13T09:19:13;31.52;;;20.33;;
18001;SDS011;9126;48.160;17.130;2022-10-13T09:21:48;26.98;;;21.02;;
18001;SDS011;9126;48.160;17.130;2022-10-13T09:24:18;27.38;;;19.45;;
18001;SDS011;9126;48.160;17.130;2022-10-13T09:26:48;24.60;;;20.50;;
18001;SDS011;9126;48.160;17.130;2022-10-13T09:29:20;31.20;;;22.85;;
18001;SDS011;9126;48.160;17.130;2022-10-13T09:32:06;30.73;;;21.48;;
18001;SDS011;9126;48.160;17.130;2022-10-13T09:34:39;32.53;;;21.17;;
18001;SDS011;9126;48.160;17.130;2022-10-13T09:37:15;34.83;;;21.83;;
18001;SDS011;9126;48.160;17.130;2022-10-13T09:39:46;29.48;;;21.00;;
18001;SDS011;9126;48.160;17.130;2022-10-13T09:42:27;29.38;;;20.05;;
18001;SDS011;9126;48.160;17.130;2022-10-13T09:44:56;29.88;;;21.00;;
18001;SDS011;9126;48.160;17.130;2022-10-13T09:47:25;32.92;;;25.10;;
18001;SDS011;9126;48.160;17.130;2022-10-13T09:50:03;27.17;;;22.00;;
18001;SDS011;9126;48.160;17.130;2022-10-13T09:52:44;31.63;;;22.52;;
18001;SDS011;9126;48.160;17.130;2022-10-13T09:58:00;26.73;;;22.92;;
18001;SDS011;9126;48.160;17.130;2022-10-13T10:00:33;27.10;;;23.05;;
18001;SDS011;9126;48.160;17.130;2022-10-13T10:03:03;27.40;;;22.52;;
18001;SDS011;9126;48.160;17.130;2022-10-13T10:05:37;29.63;;;22.38;;
18001;SDS011;9126;48.160;17.130;2022-10-13T10:08:11;28.65;;;23.80;;
18001;SDS011;9126;48.160;17.130;2022-10-13T10:10:46;32.33;;;23.30;;
18001;SDS011;9126;48.160;17.130;2022-10-13T10:13:23;29.63;;;22.65;;
18001;SDS011;9126;48.160;17.130;2022-10-13T10:15:54;32.17;;;23.13;;
18001;SDS011;9126;48.160;17.130;2022-10-13T10:18:28;31.73;;;23.58;;
18001;SDS011;9126;48.160;17.130;2022-10-13T10:21:02;33.50;;;22.63;;
18001;SDS011;9126;48.160;17.130;2022-10-13T10:23:37;28.60;;;23.27;;
18001;SDS011;9126;48.160;17.130;2022-10-13T10:26:16;35.40;;;23.48;;
18001;SDS011;9126;48.160;17.130;2022-10-13T10:28:52;37.35;;;25.35;;
18001;SDS011;9126;48.160;17.130;2022-10-13T10:31:44;32.20;;;24.10;;
18001;SDS011;9126;48.160;17.130;2022-10-13T10:34:30;33.65;;;23.73;;
18001;SDS011;9126;48.160;17.130;2022-10-13T10:37:12;35.42;;;24.98;;
18001;SDS011;9126;48.160;17.130;2022-10-13T10:39:45;30.67;;;22.95;;
18001;SDS011;9126;48.160;17.130;2022-10-13T10:42:31;29.02;;;23.85;;
18001;SDS011;9126;48.160;17.130;2022-10-13T10:45:20;36.42;;;24.20;;
18001;SDS011;9126;48.160;17.130;2022-10-13T10:48:01;30.73;;;23.58;;
18001;SDS011;9126;48.160;17.130;2022-10-13T10:50:36;33.05;;;24.58;;
18001;SDS011;9126;48.160;17.130;2022-10-13T10:53:07;28.38;;;23.15;;
18001;SDS011;9126;48.160;17.130;2022-10-13T10:58:33;32.67;;;22.30;;
18001;SDS011;9126;48.160;17.130;2022-10-13T11:01:13;26.73;;;21.25;;
18001;SDS011;9126;48.160;17.130;2022-10-13T11:03:56;29.65;;;22.13;;
18001;SDS011;9126;48.160;17.130;2022-10-13T11:06:34;36.00;;;22.75;;
18001;SDS011;9126;48.160;17.130;2022-10-13T11:09:02;32.05;;;22.30;;
18001;SDS011;9126;48.160;17.130;2022-10-13T11:11:38;32.33;;;22.98;;
18001;SDS011;9126;48.160;17.130;2022-10-13T11:14:24;30.45;;;21.60;;
18001;SDS011;9126;48.160;17.130;2022-10-13T11:17:08;26.65;;;20.27;;
18001;SDS011;9126;48.160;17.130;2022-10-13T11:19:42;25.02;;;20.73;;
18001;SDS011;9126;48.160;17.130;2022-10-13T11:22:20;33.05;;;20.75;;
18001;SDS011;9126;48.160;17.130;2022-10-13T11:24:56;46.17;;;21.35;;
18001;SDS011;9126;48.160;17.130;2022-10-13T11:27:54;22.15;;;19.88;;
18001;SDS011;9126;48.160;17.130;2022-10-13T11:30:40;20.63;;;18.30;;
18001;SDS011;9126;48.160;17.130;2022-10-13T11:33:33;26.60;;;20.45;;
18001;SDS011;9126;48.160;17.130;2022-10-13T11:42:17;27.48;;;20.05;;
18001;SDS011;9126;48.160;17.130;2022-10-13T11:44:56;26.58;;;20.15;;
18001;SDS011;9126;48.160;17.130;2022-10-13T11:50:39;30.27;;;20.55;;
18001;SDS011;9126;48.160;17.130;2022-10-13T11:53:15;29.45;;;21.02;;
18001;SDS011;9126;48.160;17.130;2022-10-13T11:55:47;29.52;;;21.52;;
18001;SDS011;9126;48.160;17.130;2022-10-13T11:58:17;31.13;;;21.42;;
18001;SDS011;9126;48.160;17.130;2022-10-13T12:00:53;38.25;;;20.95;;
18001;SDS011;9126;48.160;17.130;2022-10-13T12:03:24;31.98;;;20.95;;
18001;SDS011;9126;48.160;17.130;2022-10-13T12:05:54;35.83;;;22.65;;
18001;SDS011;9126;48.160;17.130;2022-10-13T12:08:43;23.05;;;20.75;;
18001;SDS011;9126;48.160;17.130;2022-10-13T12:11:14;25.05;;;21.35;;
18001;SDS011;9126;48.160;17.130;2022-10-13T12:13:57;28.92;;;19.80;;
18001;SDS011;9126;48.160;17.130;2022-10-13T12:16:28;28.40;;;20.90;;
18001;SDS011;9126;48.160;17.130;2022-10-13T12:19:06;27.08;;;20.05;;
18001;SDS011;9126;48.160;17.130;2022-10-13T12:21:49;36.05;;;20.08;;
18001;SDS011;9126;48.160;17.130;2022-10-13T12:24:20;30.48;;;20.65;;
18001;SDS011;9126;48.160;17.130;2022-10-13T12:26:49;28.25;;;18.38;;
18001;SDS011;9126;48.160;17.130;2022-10-13T12:29:16;34.13;;;21.25;;
18001;SDS011;9126;48.160;17.130;2022-10-13T12:31:48;33.38;;;19.70;;
18001;SDS011;9126;48.160;17.130;2022-10-13T12:34:22;23.58;;;19.42;;
18001;SDS011;9126;48.160;17.130;2022-10-13T12:36:55;25.20;;;18.45;;
18001;SDS011;9126;48.160;17.130;2022-10-13T12:39:27;27.38;;;19.42;;
18001;SDS011;9126;48.160;17.130;2022-10-13T12:41:57;25.75;;;18.50;;
18001;SDS011;9126;48.160;17.130;2022-10-13T12:44:35;22.50;;;17.40;;
18001;SDS011;9126;48.160;17.130;2022-10-13T12:47:05;25.85;;;17.58;;
18001;SDS011;9126;48.160;17.130;2022-10-13T12:50:20;24.50;;;17.35;;
18001;SDS011;9126;48.160;17.130;2022-10-13T12:53:02;28.45;;;17.38;;
18001;SDS011;9126;48.160;17.130;2022-10-13T12:55:48;26.88;;;17.60;;
18001;SDS011;9126;48.160;17.130;2022-10-13T12:58:27;29.50;;;17.58;;
18001;SDS011;9126;48.160;17.130;2022-10-13T13:01:08;23.85;;;17.95;;
18001;SDS011;9126;48.160;17.130;2022-10-13T13:03:55;21.00;;;17.83;;
18001;SDS011;9126;48.160;17.130;2022-10-13T13:09:19;20.05;;;16.70;;
18001;SDS011;9126;48.160;17.130;2022-10-13T13:12:01;24.85;;;17.13;;
18001;SDS011;9126;48.160;17.130;2022-10-13T13:14:55;20.10;;;16.10;;
18001;SDS011;9126;48.160;17.130;2022-10-13T13:17:34;17.25;;;15.27;;
18001;SDS011;9126;48.160;17.130;2022-10-13T13:20:17;19.27;;;16.02;;
18001;SDS011;9126;48.160;17.130;2022-10-13T13:22:49;23.40;;;16.10;;
18001;SDS011;9126;48.160;17.130;2022-10-13T13:25:21;19.48;;;16.05;;
18001;SDS011;9126;48.160;17.130;2022-10-13T13:27:52;21.55;;;15.00;;
18001;SDS011;9126;48.160;17.130;2022-10-13T13:30:23;20.20;;;15.20;;
18001;SDS011;9126;48.160;17.130;2022-10-13T13:32:54;20.17;;;15.60;;
18001;SDS011;9126;48.160;17.130;2022-10-13T13:35:22;21.10;;;15.98;;
18001;SDS011;9126;48.160;17.130;2022-10-13T13:37:53;22.00;;;15.32;;
18001;SDS011;9126;48.160;17.130;2022-10-13T13:40:24;20.00;;;15.40;;
18001;SDS011;9126;48.160;17.130;2022-10-13T13:43:01;24.42;;;16.00;;
18001;SDS011;9126;48.160;17.130;2022-10-13T13:45:31;23.73;;;16.63;;
18001;SDS011;9126;48.160;17.130;2022-10-13T13:48:05;23.88;;;16.83;;
18001;SDS011;9126;48.160;17.130;2022-10-13T13:50:35;22.27;;;16.15;;
18001;SDS011;9126;48.160;17.130;2022-10-13T13:53:15;24.08;;;16.02;;
18001;SDS011;9126;48.160;17.130;2022-10-13T13:55:50;25.98;;;16.42;;
18001;SDS011;9126;48.160;17.130;2022-10-13T13:58:18;23.27;;;16.23;;
18001;SDS011;9126;48.160;17.130;2022-10-13T14:00:51;20.95;;;16.77;;
18001;SDS011;9126;48.160;17.130;2022-10-13T14:03:22;23.90;;;15.82;;
18001;SDS011;9126;48.160;17.130;2022-10-13T14:05:54;21.40;;;17.08;;
18001;SDS011;9126;48.160;17.130;2022-10-13T14:08:28;24.95;;;16.25;;
18001;SDS011;9126;48.160;17.130;2022-10-13T14:11:07;18.45;;;15.95;;
18001;SDS011;9126;48.160;17.130;2022-10-13T14:13:37;27.77;;;17.42;;
18001;SDS011;9126;48.160;17.130;2022-10-13T14:16:06;21.08;;;16.48;;
18001;SDS011;9126;48.160;17.130;2022-10-13T14:18:42;21.55;;;16.60;;
18001;SDS011;9126;48.160;17.130;2022-10-13T14:21:10;18.27;;;15.68;;
18001;SDS011;9126;48.160;17.130;2022-10-13T14:26:21;19.65;;;16.58;;
18001;SDS011;9126;48.160;17.130;2022-10-13T14:28:49;25.45;;;17.63;;
18001;SDS011;9126;48.160;17.130;2022-10-13T14:31:20;21.40;;;16.92;;
18001;SDS011;9126;48.160;17.130;2022-10-13T14:33:52;23.48;;;16.67;;
18001;SDS011;9126;48.160;17.130;2022-10-13T14:36:20;25.23;;;16.15;;
18001;SDS011;9126;48.160;17.130;2022-10-13T14:38:48;28.20;;;17.65;;
18001;SDS011;9126;48.160;17.130;2022-10-13T14:41:17;23.45;;;17.48;;
18001;SDS011;9126;48.160;17.130;2022-10-13T14:43:50;19.60;;;15.15;;
18001;SDS011;9126;48.160;17.130;2022-10-13T14:46:19;21.77;;;15.98;;
18001;SDS011;9126;48.160;17.130;2022-10-13T14:48:48;27.70;;;16.45;;
18001;SDS011;9126;48.160;17.130;2022-10-13T14:51:15;33.92;;;17.58;;
18001;SDS011;9126;48.160;17.130;2022-10-13T14:58:18;21.85;;;17.45;;
18001;SDS011;9126;48.160;17.130;2022-10-13T15:00:48;18.98;;;15.10;;
18001;SDS011;9126;48.160;17.130;2022-10-13T15:03:19;20.95;;;14.20;;
18001;SDS011;9126;48.160;17.130;2022-10-13T15:05:47;17.88;;;14.10;;
18001;SDS011;9126;48.160;17.130;2022-10-13T15:08:14;22.85;;;13.95;;
18001;SDS011;9126;48.160;17.130;2022-10-13T15:10:41;21.88;;;15.77;;
18001;SDS011;9126;48.160;17.130;2022-10-13T15:13:09;20.60;;;14.77;;
18001;SDS011;9126;48.160;17.130;2022-10-13T15:15:39;22.05;;;16.00;;
18001;SDS011;9126;48.160;17.130;2022-10-13T15:18:11;20.65;;;14.75;;